Skip Navigation Links
NOAA logo - Click to go to the NOAA homepage
NOAA's National Weather Service
Alaska Aviation Weather Unit
  NWS logo - Click to go to the NWS homepage
Left Navbar Graphic     23 AKDT = 07 GMT

   
NOAA is celebrating 200 years of science, service, and stewardship. Visit the NOAA 200th celebration Web site to learn more.
USA.gov is the U.S. Government's official Web portal to all Federal, state and local government Web resources and services.
Facebook
NWS on Facebook

Important Change Regarding the AAWU Web Presence

 

Over the last several months, the AAWU has been working to navigate its webpages to a nationally supported server. Security, as well as other needs, have necessitated the change.  In the process, we have made an effort to enhance the functionality of our website, as well as some of our products. As of June 20, 2017, aawu.arh.noaa.gov will be discontinued. The new AAWU web address is weather.gov/aawu. It is now live and will run in-parallel with the old site until it is discontinued. Please send any feedback or questions regarding the new webpages to nws.ar.aawu.webauthors@noaa.gov.  Thank you for your patience during this time of transition.
AAWU Home :: Display TAF Add Bookmark
TAF CYZP 240638Z 2407/2419 28020G30KT P6SM SCT020 BKN040 TEMPO
     2407/2412 P6SM -SHRA BKN020
    FM241200 30020G30KT P6SM SCT040
     BECMG 2415/2417 30015G25KT
    RMK FCST BASED ON AUTO OBS. NXT FCST BY 241300Z=

METAR CYZP 240100Z AUTO 28019G26KT 9SM BKN034 OVC045 12/07 A3004 RMK SLP172= METAR CYZP 240200Z AUTO 27019G24KT 9SM FEW033 SCT045 BKN090 BKN110 12/07 A3005 RMK SLP178= METAR CYZP 240300Z AUTO 27023G28KT 9SM FEW032 SCT045 12/07 A3006 RMK SLP183= METAR CYZP 240400Z AUTO 28023G28KT 9SM FEW032 11/06 A3008 RMK SLP187= METAR CYZP 240500Z AUTO 29018G25KT 9SM FEW030 OVC036 11/06 A3011 RMK SLP200= METAR CYZP 240600Z AUTO 28022G30KT 9SM BKN036 10/05 A3013 RMK SLP205= METAR CYZP 240700Z AUTO 28022G28KT 9SM FEW036 10/06 A3015 RMK SLP211=
 Alaska TAF Map

NOAA's National Weather Service
Alaska Aviation Weather Unit
6930 Sand Lake Road
Anchorage, AK 99502-1845
Disclaimer
Credits
Glossary
Privacy Policy
About Us
Career Opportunities
Contact AAWU Internet Services Site last modified: April, 17th 2012